Time;durP1;ratioP1;P1;durP2;ratioP2;P2;SDS_P1;SDS_P2;PMS_P1;PMS_P2;Temp;Humidity;BMP_temperature;BMP_pressure;BME280_temperature;BME280_humidity;BME280_pressure;Samples;Min_cycle;Max_cycle;Signal;HPM_P1;HPM_P2
2021/08/09 00:00:09;;;;;;;4.77;4.27;;;15.50;99.90;;;;;;5067740;28;20443;-64
2021/08/09 00:02:35;;;;;;;4.43;4.17;;;15.50;99.90;;;;;;5059178;28;20464;-65
2021/08/09 00:05:02;;;;;;;4.50;4.10;;;15.50;99.90;;;;;;5058790;28;20981;-64
2021/08/09 00:07:29;;;;;;;4.33;3.83;;;15.50;99.90;;;;;;5062196;28;20447;-64
2021/08/09 00:09:57;;;;;;;4.43;4.03;;;15.50;99.90;;;;;;5062698;28;20443;-64
2021/08/09 00:12:24;;;;;;;8.00;4.10;;;15.50;99.90;;;;;;5057541;28;20991;-65
2021/08/09 00:14:50;;;;;;;4.33;3.93;;;15.40;99.90;;;;;;5059877;28;20458;-65
2021/08/09 00:17:17;;;;;;;4.37;3.83;;;15.40;99.90;;;;;;5060649;28;20818;-64
2021/08/09 00:19:44;;;;;;;6.67;6.17;;;15.40;99.90;;;;;;5059225;28;20449;-63
2021/08/09 00:22:11;;;;;;;4.23;3.93;;;15.30;99.90;;;;;;5059726;28;20496;-64
2021/08/09 00:24:37;;;;;;;4.10;3.87;;;15.30;99.90;;;;;;5060982;28;20458;-64
2021/08/09 00:27:06;;;;;;;4.57;4.17;;;15.30;99.90;;;;;;5061690;28;20482;-64
2021/08/09 00:29:32;;;;;;;7.90;4.90;;;15.20;99.90;;;;;;5062591;28;20455;-64
2021/08/09 00:31:59;;;;;;;4.30;3.83;;;15.10;99.90;;;;;;5062296;28;20467;-64
2021/08/09 00:34:26;;;;;;;4.50;4.10;;;15.00;99.90;;;;;;5059236;28;20448;-64
2021/08/09 00:36:52;;;;;;;4.70;4.30;;;15.00;99.90;;;;;;5053506;28;20445;-63
2021/08/09 00:39:19;;;;;;;9.37;5.30;;;14.90;99.90;;;;;;5060939;28;20855;-65
2021/08/09 00:41:46;;;;;;;4.00;3.80;;;14.90;99.90;;;;;;5062037;28;20443;-65
2021/08/09 00:44:15;;;;;;;4.93;4.47;;;14.80;99.90;;;;;;5062144;28;20966;-63
2021/08/09 00:46:42;;;;;;;5.83;5.17;;;14.80;99.90;;;;;;5057527;28;20516;-64
2021/08/09 00:49:09;;;;;;;4.33;3.97;;;14.70;99.90;;;;;;5055238;28;20444;-65
2021/08/09 00:51:36;;;;;;;6.00;5.60;;;14.70;99.90;;;;;;5055003;28;20447;-66
2021/08/09 00:54:02;;;;;;;6.50;3.50;;;14.60;99.90;;;;;;5055179;28;20448;-64
2021/08/09 00:56:29;;;;;;;5.93;4.23;;;14.60;99.90;;;;;;5058910;28;20446;-64
2021/08/09 00:58:58;;;;;;;5.57;3.80;;;14.60;99.90;;;;;;5074840;28;20443;-64
2021/08/09 01:01:26;;;;;;;5.23;4.80;;;14.50;99.90;;;;;;5069304;28;20443;-64
2021/08/09 01:03:52;;;;;;;5.10;4.40;;;14.50;99.90;;;;;;5066055;28;20547;-64
2021/08/09 01:06:19;;;;;;;11.13;3.43;;;14.50;99.90;;;;;;5064813;28;20480;-64
2021/08/09 01:08:56;;;;;;;5.67;5.03;;;14.40;99.90;;;;;;5065949;28;20940;-64
2021/08/09 01:11:27;;;;;;;4.33;4.03;;;14.40;99.90;;;;;;5073133;28;20453;-64
2021/08/09 01:13:59;;;;;;;5.40;3.90;;;14.40;99.90;;;;;;5073189;28;20474;-65
2021/08/09 01:16:31;;;;;;;3.67;3.43;;;14.30;99.90;;;;;;5074711;28;20443;-65
2021/08/09 01:19:00;;;;;;;4.43;4.00;;;14.30;99.90;;;;;;5074707;28;20446;-66
2021/08/09 01:21:31;;;;;;;5.87;4.87;;;14.20;99.90;;;;;;5054358;28;20446;-64
2021/08/09 01:24:08;;;;;;;3.80;3.50;;;14.20;99.90;;;;;;5054641;28;20471;-63
2021/08/09 01:26:40;;;;;;;5.50;4.30;;;14.20;99.90;;;;;;5054470;28;20486;-64
2021/08/09 01:29:11;;;;;;;6.27;3.83;;;14.20;99.90;;;;;;5054573;28;20816;-65
2021/08/09 01:31:42;;;;;;;3.83;3.53;;;14.10;99.90;;;;;;5054072;28;20451;-65
2021/08/09 01:34:10;;;;;;;5.67;5.10;;;14.10;99.90;;;;;;5054497;28;20475;-65
2021/08/09 01:36:40;;;;;;;5.80;4.50;;;14.10;99.90;;;;;;5055634;28;20439;-66
2021/08/09 01:39:07;;;;;;;3.90;3.50;;;14.10;99.90;;;;;;5054368;28;20436;-66
2021/08/09 01:41:35;;;;;;;3.80;3.50;;;14.10;99.90;;;;;;5054061;28;20444;-65
2021/08/09 01:44:03;;;;;;;8.47;4.30;;;14.10;99.90;;;;;;5055181;28;20475;-66
2021/08/09 01:46:32;;;;;;;3.47;3.13;;;14.10;99.90;;;;;;5054233;28;20479;-66
2021/08/09 01:49:00;;;;;;;10.23;4.93;;;14.20;99.90;;;;;;5054217;28;20459;-66
2021/08/09 01:51:27;;;;;;;6.23;4.03;;;14.20;99.90;;;;;;5053821;28;20440;-67
2021/08/09 01:53:54;;;;;;;4.87;3.83;;;14.20;99.90;;;;;;5054998;28;20464;-67
2021/08/09 01:56:21;;;;;;;3.67;3.20;;;14.30;99.90;;;;;;5054531;28;20448;-67
2021/08/09 01:58:48;;;;;;;4.60;4.23;;;14.40;99.90;;;;;;5053870;28;20452;-67
2021/08/09 02:01:15;;;;;;;4.33;3.87;;;14.40;99.90;;;;;;5053766;28;20793;-67
2021/08/09 02:03:43;;;;;;;4.83;4.43;;;14.50;99.90;;;;;;5053807;28;20463;-67
2021/08/09 02:06:10;;;;;;;4.17;3.73;;;14.50;99.90;;;;;;5053775;28;20483;-67
2021/08/09 02:08:37;;;;;;;5.10;4.53;;;14.60;99.90;;;;;;5057408;28;20448;-67
2021/08/09 02:11:09;;;;;;;4.50;4.10;;;14.60;99.90;;;;;;5064269;28;20963;-66
2021/08/09 02:13:40;;;;;;;8.67;5.77;;;14.70;99.90;;;;;;5073649;28;20495;-67
2021/08/09 02:16:12;;;;;;;4.47;4.17;;;14.70;99.90;;;;;;5073663;28;20439;-67
2021/08/09 02:18:47;;;;;;;6.97;5.10;;;14.70;99.90;;;;;;5073442;28;20482;-67
2021/08/09 02:21:17;;;;;;;4.23;3.40;;;14.70;99.90;;;;;;5073367;28;20851;-67
2021/08/09 02:23:47;;;;;;;6.10;3.90;;;14.80;99.90;;;;;;5073315;28;20463;-65
2021/08/09 02:26:17;;;;;;;3.77;3.47;;;14.80;99.90;;;;;;5053346;28;20491;-66
2021/08/09 02:28:47;;;;;;;4.70;4.30;;;14.90;99.90;;;;;;5053381;28;20453;-66
2021/08/09 02:31:14;;;;;;;4.63;4.20;;;14.90;99.90;;;;;;5057998;28;20466;-67
2021/08/09 02:33:43;;;;;;;5.80;4.60;;;14.90;99.90;;;;;;5073317;28;20466;-66
2021/08/09 02:36:12;;;;;;;5.30;4.80;;;14.90;99.90;;;;;;5069106;28;20512;-67
2021/08/09 02:38:40;;;;;;;3.80;3.50;;;14.90;99.90;;;;;;5071041;28;20473;-65
2021/08/09 02:41:07;;;;;;;5.00;4.33;;;14.90;99.90;;;;;;5072646;28;20846;-66
2021/08/09 02:43:35;;;;;;;7.07;4.60;;;14.90;99.90;;;;;;5072429;28;20483;-67
2021/08/09 02:46:03;;;;;;;4.57;4.17;;;14.90;99.90;;;;;;5073025;28;20482;-67
2021/08/09 02:48:31;;;;;;;5.33;4.57;;;14.90;99.90;;;;;;5070593;28;20444;-66
2021/08/09 02:50:58;;;;;;;4.67;4.33;;;14.90;99.90;;;;;;5052815;28;20813;-67
2021/08/09 02:53:27;;;;;;;4.43;3.97;;;14.90;99.90;;;;;;5052841;28;20468;-67
2021/08/09 02:55:57;;;;;;;4.20;3.90;;;14.90;99.90;;;;;;5052904;28;20448;-66
2021/08/09 02:58:24;;;;;;;4.60;4.07;;;15.00;99.90;;;;;;5052967;28;20470;-67
2021/08/09 03:00:53;;;;;;;6.17;4.73;;;14.90;99.90;;;;;;5052591;28;20440;-67
2021/08/09 03:03:23;;;;;;;5.10;4.00;;;15.00;99.90;;;;;;5061757;28;20471;-67
2021/08/09 03:05:53;;;;;;;5.33;3.73;;;15.00;99.90;;;;;;5072639;28;20446;-65
2021/08/09 03:08:20;;;;;;;7.80;5.20;;;15.00;99.90;;;;;;5071641;28;20538;-66
2021/08/09 03:10:48;;;;;;;3.90;3.70;;;15.00;99.90;;;;;;5065703;28;20452;-66
2021/08/09 03:13:15;;;;;;;6.90;5.00;;;15.00;99.90;;;;;;5056425;28;20555;-67
2021/08/09 03:15:42;;;;;;;4.90;4.50;;;15.00;99.90;;;;;;5059851;28;20814;-67
2021/08/09 03:18:10;;;;;;;5.93;4.27;;;14.90;99.90;;;;;;5059057;28;20494;-67
2021/08/09 03:20:36;;;;;;;7.10;5.37;;;14.90;99.90;;;;;;5064322;28;20848;-67
2021/08/09 03:23:03;;;;;;;7.80;5.53;;;14.90;99.90;;;;;;5061516;28;20463;-66
2021/08/09 03:25:30;;;;;;;5.60;4.73;;;15.00;99.90;;;;;;5058229;28;20437;-67
2021/08/09 03:27:59;;;;;;;4.17;3.93;;;15.00;99.90;;;;;;5062538;28;20485;-66
2021/08/09 03:30:26;;;;;;;4.77;4.40;;;15.00;99.90;;;;;;5061768;28;21628;-66
2021/08/09 03:32:53;;;;;;;5.23;4.70;;;15.00;99.90;;;;;;5068208;28;20467;-65
2021/08/09 03:35:20;;;;;;;5.53;4.97;;;15.00;99.90;;;;;;5052174;28;20444;-66
2021/08/09 03:37:47;;;;;;;4.93;4.63;;;15.00;99.90;;;;;;5052079;28;20444;-66
2021/08/09 03:40:14;;;;;;;4.33;4.03;;;15.00;99.90;;;;;;5051943;28;20444;-65
2021/08/09 03:42:41;;;;;;;5.83;5.33;;;15.00;99.90;;;;;;5051732;28;20463;-66
2021/08/09 03:45:10;;;;;;;6.00;5.57;;;15.00;99.90;;;;;;5058228;28;20470;-65
2021/08/09 03:47:36;;;;;;;5.20;4.90;;;15.00;99.90;;;;;;5071892;28;20475;-66
2021/08/09 03:50:04;;;;;;;5.90;5.40;;;15.00;99.90;;;;;;5071814;28;20443;-66
2021/08/09 03:52:31;;;;;;;6.77;5.13;;;15.00;99.90;;;;;;5071418;28;21011;-66
2021/08/09 03:54:57;;;;;;;8.17;5.40;;;15.00;99.90;;;;;;5070076;28;20447;-66
2021/08/09 03:57:26;;;;;;;7.57;5.27;;;15.00;99.90;;;;;;5065124;28;20950;-67
2021/08/09 03:59:52;;;;;;;5.43;5.03;;;15.00;99.90;;;;;;5064961;28;20478;-66
2021/08/09 04:02:28;;;;;;;9.03;5.17;;;15.00;99.90;;;;;;5054058;28;20467;-65
2021/08/09 04:04:57;;;;;;;5.00;4.60;;;15.10;99.90;;;;;;5048615;28;20478;-65
2021/08/09 04:07:24;;;;;;;10.13;6.07;;;15.10;99.90;;;;;;5046006;28;20508;-66
2021/08/09 04:09:51;;;;;;;5.37;5.07;;;15.10;99.90;;;;;;5048146;28;20452;-65
2021/08/09 04:12:17;;;;;;;6.17;5.47;;;15.10;99.90;;;;;;5050256;28;21296;-66
2021/08/09 04:14:44;;;;;;;6.83;6.10;;;15.10;99.90;;;;;;5046451;28;20935;-65
2021/08/09 04:17:11;;;;;;;6.23;5.67;;;15.10;99.90;;;;;;5047066;28;20483;-64
2021/08/09 04:19:39;;;;;;;6.63;6.13;;;15.10;99.90;;;;;;5049767;28;20451;-66
2021/08/09 04:22:06;;;;;;;6.53;6.03;;;15.10;99.90;;;;;;5049302;28;20468;-65
2021/08/09 04:24:33;;;;;;;6.57;6.07;;;15.10;99.90;;;;;;5048408;28;20459;-66
2021/08/09 04:27:00;;;;;;;9.40;6.60;;;15.10;99.90;;;;;;5054139;28;20601;-69
2021/08/09 04:29:27;;;;;;;6.47;5.70;;;15.10;99.90;;;;;;5048603;28;20466;-67
2021/08/09 04:31:54;;;;;;;7.43;6.83;;;15.20;99.90;;;;;;5047280;28;20460;-67
2021/08/09 04:34:20;;;;;;;6.27;5.77;;;15.20;99.90;;;;;;5049877;28;20447;-68
2021/08/09 04:36:48;;;;;;;6.90;6.20;;;15.20;99.90;;;;;;5050791;28;20446;-67
2021/08/09 04:39:15;;;;;;;6.53;6.20;;;15.20;99.90;;;;;;5049305;28;20482;-68
2021/08/09 04:41:42;;;;;;;8.27;7.33;;;15.30;99.90;;;;;;5050450;28;20459;-67
2021/08/09 04:44:12;;;;;;;5.60;5.10;;;15.40;99.90;;;;;;5049993;28;20943;-67
2021/08/09 04:46:39;;;;;;;7.43;6.73;;;15.40;99.90;;;;;;5057921;28;20510;-68
2021/08/09 04:49:05;;;;;;;8.87;6.17;;;15.40;99.90;;;;;;5070748;28;20447;-68
2021/08/09 04:51:32;;;;;;;6.27;5.87;;;15.50;99.90;;;;;;5071039;28;20455;-67
2021/08/09 04:54:00;;;;;;;6.83;6.33;;;15.60;99.90;;;;;;5071261;28;20824;-68
2021/08/09 04:56:27;;;;;;;7.30;6.50;;;15.60;99.90;;;;;;5067379;28;20463;-68
2021/08/09 04:58:53;;;;;;;6.43;6.03;;;15.60;99.90;;;;;;5074947;22;20495;-64
2021/08/09 05:01:20;;;;;;;6.77;6.27;;;15.60;99.90;;;;;;5050900;28;20440;-64
2021/08/09 05:03:53;;;;;;;7.07;6.67;;;15.60;99.90;;;;;;5050976;28;20448;-63
2021/08/09 05:06:19;;;;;;;7.97;7.27;;;15.70;99.90;;;;;;5050805;28;21000;-64
2021/08/09 05:08:46;;;;;;;6.87;6.27;;;15.70;99.90;;;;;;5050884;28;20472;-64
2021/08/09 05:11:14;;;;;;;7.90;7.10;;;15.80;99.90;;;;;;5050726;28;20448;-64
2021/08/09 05:13:41;;;;;;;6.80;6.33;;;15.80;99.90;;;;;;5049307;28;20437;-63
2021/08/09 05:16:08;;;;;;;8.23;7.53;;;15.90;99.90;;;;;;5050355;28;20822;-65
2021/08/09 05:18:34;;;;;;;8.07;7.57;;;15.90;99.90;;;;;;5050662;28;20776;-63
2021/08/09 05:21:01;;;;;;;7.90;7.33;;;15.90;99.90;;;;;;5050757;28;20766;-64
2021/08/09 05:23:28;;;;;;;9.50;8.80;;;15.90;99.90;;;;;;5050711;28;20479;-64
2021/08/09 05:25:55;;;;;;;8.93;8.17;;;16.00;99.90;;;;;;5050569;28;20444;-63
2021/08/09 05:28:23;;;;;;;10.97;10.07;;;16.00;99.90;;;;;;5050527;28;20495;-64
2021/08/09 05:30:49;;;;;;;8.73;8.17;;;16.10;99.90;;;;;;5051122;28;20452;-64
2021/08/09 05:33:16;;;;;;;9.20;8.60;;;16.20;99.90;;;;;;5049205;28;20444;-62
2021/08/09 05:35:44;;;;;;;11.93;9.20;;;16.30;99.90;;;;;;5041500;28;20807;-63
2021/08/09 05:38:11;;;;;;;9.83;9.23;;;16.40;99.90;;;;;;5042830;28;20453;-65
2021/08/09 05:40:38;;;;;;;10.50;9.60;;;16.50;99.90;;;;;;5045555;28;20452;-64
2021/08/09 05:43:05;;;;;;;10.27;9.57;;;16.50;99.90;;;;;;5045175;28;20443;-64
2021/08/09 05:45:33;;;;;;;10.20;9.50;;;16.50;99.90;;;;;;5038014;28;20448;-64
2021/08/09 05:47:59;;;;;;;10.80;9.90;;;16.50;99.90;;;;;;5045397;28;20511;-64
2021/08/09 05:50:26;;;;;;;10.47;9.87;;;16.50;99.90;;;;;;5045293;28;20448;-64
2021/08/09 05:52:53;;;;;;;11.47;10.40;;;16.50;99.90;;;;;;5044969;28;20454;-63
2021/08/09 05:55:24;;;;;;;10.60;10.00;;;16.50;99.90;;;;;;5043051;28;21000;-65
2021/08/09 05:57:51;;;;;;;15.33;13.63;;;16.60;99.90;;;;;;5043406;28;20550;-65
2021/08/09 06:00:18;;;;;;;11.50;10.50;;;16.60;99.90;;;;;;5041699;28;20513;-65
2021/08/09 06:02:46;;;;;;;11.27;10.57;;;16.60;99.90;;;;;;5040116;28;20441;-66
2021/08/09 06:05:13;;;;;;;11.80;11.07;;;16.60;99.90;;;;;;5041248;28;20818;-65
2021/08/09 06:07:40;;;;;;;10.90;10.30;;;16.60;99.90;;;;;;5043641;28;20561;-65
2021/08/09 06:10:09;;;;;;;11.00;10.40;;;16.60;99.90;;;;;;5044136;28;20456;-65
2021/08/09 06:12:37;;;;;;;11.67;10.97;;;16.60;99.90;;;;;;5032982;28;20449;-66
2021/08/09 06:15:05;;;;;;;11.00;10.60;;;16.60;99.90;;;;;;5030104;28;20475;-64
2021/08/09 06:17:32;;;;;;;11.90;11.00;;;16.60;99.90;;;;;;5025776;28;20461;-65
2021/08/09 06:20:01;;;;;;;12.20;11.40;;;16.60;99.90;;;;;;5033604;28;20456;-65
2021/08/09 06:22:28;;;;;;;11.97;11.07;;;16.70;99.90;;;;;;5037237;28;20945;-66
2021/08/09 06:24:55;;;;;;;12.50;11.73;;;16.80;99.90;;;;;;5030890;28;20933;-65
2021/08/09 06:27:22;;;;;;;11.53;11.03;;;17.00;99.90;;;;;;5030706;28;20993;-65
2021/08/09 06:29:49;;;;;;;12.77;11.83;;;17.10;99.90;;;;;;5029497;28;20441;-65
2021/08/09 06:32:16;;;;;;;13.07;12.13;;;17.30;99.90;;;;;;5030930;28;20445;-66
2021/08/09 06:34:43;;;;;;;13.40;12.70;;;17.50;99.90;;;;;;5038279;28;21012;-65
2021/08/09 06:37:12;;;;;;;13.20;12.50;;;17.80;99.90;;;;;;5037335;28;20527;-65
2021/08/09 06:39:38;;;;;;;14.37;13.60;;;18.00;99.90;;;;;;5029781;28;20444;-65
2021/08/09 06:42:06;;;;;;;14.10;13.20;;;18.20;99.90;;;;;;5027843;28;20456;-65
2021/08/09 06:44:33;;;;;;;15.20;14.40;;;18.40;99.90;;;;;;5033167;28;20444;-66
2021/08/09 06:47:00;;;;;;;14.93;14.23;;;18.60;99.90;;;;;;5032150;28;20487;-67
2021/08/09 06:49:27;;;;;;;15.63;14.93;;;18.70;99.90;;;;;;5032862;28;20453;-64
2021/08/09 06:51:55;;;;;;;15.03;14.33;;;18.90;99.90;;;;;;5032379;28;20453;-65
2021/08/09 06:54:25;;;;;;;15.70;15.00;;;19.00;99.90;;;;;;5030909;28;20456;-65
2021/08/09 06:56:52;;;;;;;16.90;16.00;;;19.20;99.90;;;;;;5031149;28;20824;-65
2021/08/09 06:59:19;;;;;;;15.60;15.00;;;19.20;99.90;;;;;;5031008;28;20459;-65
2021/08/09 07:01:47;;;;;;;16.30;15.30;;;19.40;99.90;;;;;;5032448;28;20448;-65
2021/08/09 07:04:14;;;;;;;16.47;15.57;;;19.40;99.90;;;;;;5025643;28;20449;-65
2021/08/09 07:06:48;;;;;;;17.27;16.47;;;19.40;99.90;;;;;;5032323;28;20460;-65
2021/08/09 07:09:15;;;;;;;16.10;15.40;;;19.40;99.90;;;;;;5030421;28;20483;-65
2021/08/09 07:11:43;;;;;;;17.70;16.90;;;19.50;99.90;;;;;;5029045;28;20446;-65
2021/08/09 07:14:10;;;;;;;17.10;16.30;;;19.60;99.90;;;;;;5030223;28;21047;-64
2021/08/09 07:16:37;;;;;;;17.20;16.40;;;19.70;99.90;;;;;;5025157;28;20772;-64
2021/08/09 07:19:04;;;;;;;17.00;16.30;;;19.70;99.90;;;;;;5033187;28;20472;-65
2021/08/09 07:21:31;;;;;;;18.97;17.90;;;19.70;99.90;;;;;;5029767;28;20444;-64
2021/08/09 07:23:58;;;;;;;17.10;16.40;;;19.70;99.90;;;;;;5028540;28;20785;-64
2021/08/09 07:26:25;;;;;;;17.00;16.30;;;19.90;99.90;;;;;;5029952;28;20937;-65
2021/08/09 07:28:53;;;;;;;17.00;16.10;;;19.90;99.90;;;;;;5032144;28;20488;-65
2021/08/09 07:31:20;;;;;;;17.10;16.40;;;20.00;99.90;;;;;;5036061;28;20452;-64
2021/08/09 07:33:47;;;;;;;18.63;17.63;;;19.90;99.90;;;;;;5032162;28;20455;-65
2021/08/09 07:36:14;;;;;;;17.50;16.60;;;20.00;99.90;;;;;;5030404;28;20448;-65
2021/08/09 07:38:41;;;;;;;17.50;16.63;;;20.20;99.90;;;;;;5028323;28;20473;-65
2021/08/09 07:41:08;;;;;;;16.50;15.90;;;20.20;99.90;;;;;;5021948;28;20476;-64
2021/08/09 07:43:34;;;;;;;16.53;15.87;;;20.10;99.90;;;;;;5031923;28;20451;-64
2021/08/09 07:46:02;;;;;;;17.67;16.67;;;20.30;99.90;;;;;;5031645;28;20463;-64
2021/08/09 07:48:30;;;;;;;17.27;16.37;;;20.40;99.90;;;;;;5037959;28;20946;-63
2021/08/09 07:50:58;;;;;;;16.83;16.13;;;20.50;99.90;;;;;;5031225;28;20452;-63
2021/08/09 07:53:26;;;;;;;17.20;16.30;;;20.60;99.90;;;;;;5028411;28;20459;-63
2021/08/09 07:55:53;;;;;;;17.17;16.27;;;20.80;99.90;;;;;;5026576;28;20568;-62
2021/08/09 07:58:20;;;;;;;17.37;16.57;;;21.00;99.90;;;;;;5030849;28;20476;-63
2021/08/09 08:00:47;;;;;;;16.80;16.10;;;21.20;99.90;;;;;;5031378;28;20838;-63
2021/08/09 08:03:15;;;;;;;17.73;16.93;;;21.40;99.90;;;;;;5029698;28;21022;-62
2021/08/09 08:05:41;;;;;;;17.60;16.60;;;21.60;99.90;;;;;;5027851;28;20468;-63
2021/08/09 08:08:10;;;;;;;17.17;16.47;;;21.70;99.90;;;;;;5028923;28;20487;-62
2021/08/09 08:10:37;;;;;;;17.77;17.07;;;21.80;99.90;;;;;;5027753;28;20457;-63
2021/08/09 08:13:03;;;;;;;17.43;16.63;;;21.80;99.90;;;;;;5027865;28;21034;-63
2021/08/09 08:15:30;;;;;;;17.37;16.47;;;22.00;99.90;;;;;;5027548;28;20452;-63
2021/08/09 08:17:57;;;;;;;18.50;17.60;;;22.10;99.90;;;;;;5027635;28;20472;-62
2021/08/09 08:20:25;;;;;;;17.47;16.67;;;22.30;99.90;;;;;;5030284;28;20451;-64
2021/08/09 08:22:54;;;;;;;18.03;17.27;;;22.40;99.90;;;;;;5031238;28;21055;-64
2021/08/09 08:25:21;;;;;;;16.80;16.00;;;22.30;99.90;;;;;;5027307;28;21041;-63
2021/08/09 08:27:47;;;;;;;17.00;16.40;;;22.20;99.90;;;;;;5031610;28;21138;-64
2021/08/09 08:30:15;;;;;;;17.03;16.30;;;22.20;99.90;;;;;;5029153;28;20819;-64
2021/08/09 08:32:43;;;;;;;17.83;16.70;;;22.00;99.90;;;;;;5030401;28;20452;-62
2021/08/09 08:35:10;;;;;;;17.30;16.50;;;21.80;99.90;;;;;;5026476;28;20456;-65
2021/08/09 08:37:38;;;;;;;16.73;15.93;;;21.80;99.90;;;;;;5027228;28;20465;-64
2021/08/09 08:40:06;;;;;;;16.13;15.50;;;21.70;99.90;;;;;;5027566;28;20455;-63
2021/08/09 08:42:33;;;;;;;17.27;16.37;;;21.80;99.90;;;;;;5020965;28;20472;-64
2021/08/09 08:45:03;;;;;;;17.80;16.80;;;21.80;99.90;;;;;;5027832;28;20893;-64
2021/08/09 08:47:30;;;;;;;17.40;16.60;;;21.90;99.90;;;;;;5036116;28;20548;-64
2021/08/09 08:49:58;;;;;;;17.30;16.20;;;21.90;99.90;;;;;;5030853;28;20463;-64
2021/08/09 08:52:26;;;;;;;17.63;16.87;;;22.00;99.90;;;;;;5021906;28;20887;-64
2021/08/09 08:54:54;;;;;;;17.87;17.07;;;22.10;99.90;;;;;;5036339;28;20918;-64
2021/08/09 08:57:22;;;;;;;17.47;16.63;;;22.10;99.90;;;;;;5032246;28;20491;-64
2021/08/09 08:59:50;;;;;;;17.00;16.30;;;22.20;99.90;;;;;;5027175;28;20445;-64
2021/08/09 09:02:36;;;;;;;17.27;16.30;;;22.20;99.90;;;;;;5019347;28;20451;-64
2021/08/09 09:05:08;;;;;;;17.60;16.90;;;22.50;99.90;;;;;;5021592;28;20448;-64
2021/08/09 09:07:35;;;;;;;19.30;18.17;;;22.70;99.90;;;;;;5036386;28;20460;-66
2021/08/09 09:10:22;;;;;;;17.90;17.13;;;23.20;99.70;;;;;;5028564;28;20837;-65
2021/08/09 09:13:09;;;;;;;17.37;16.43;;;23.70;97.70;;;;;;5041380;28;20468;-65
2021/08/09 09:15:59;;;;;;;16.77;16.17;;;23.80;96.80;;;;;;5037276;28;20449;-65
2021/08/09 09:18:27;;;;;;;16.97;16.10;;;23.80;95.60;;;;;;5034459;28;21304;-64
2021/08/09 09:20:56;;;;;;;16.97;16.27;;;23.90;95.40;;;;;;5034631;28;20598;-64
2021/08/09 09:23:24;;;;;;;16.53;15.83;;;24.00;95.50;;;;;;5032955;28;20988;-65
2021/08/09 09:25:53;;;;;;;17.13;16.20;;;24.10;93.90;;;;;;5035700;28;20453;-65
2021/08/09 09:28:29;;;;;;;17.70;16.90;;;24.20;93.00;;;;;;5032803;28;20990;-65
2021/08/09 09:31:01;;;;;;;16.63;16.00;;;24.50;92.10;;;;;;5031156;28;20452;-64
2021/08/09 09:33:30;;;;;;;16.43;15.73;;;24.60;91.30;;;;;;5034343;28;20452;-64
2021/08/09 09:35:56;;;;;;;18.27;17.37;;;24.80;89.40;;;;;;5034367;28;20460;-64
2021/08/09 09:38:26;;;;;;;16.83;16.23;;;25.00;87.60;;;;;;5031418;28;20471;-64
2021/08/09 09:41:05;;;;;;;18.17;17.33;;;25.00;89.30;;;;;;5030877;28;21240;-63
2021/08/09 09:43:40;;;;;;;17.10;16.50;;;24.90;87.10;;;;;;5026854;28;20452;-64
2021/08/09 09:46:06;;;;;;;17.43;16.73;;;24.90;87.30;;;;;;5033560;28;20455;-64
2021/08/09 09:48:35;;;;;;;17.80;17.00;;;24.90;85.70;;;;;;5030193;28;20515;-64
2021/08/09 09:51:12;;;;;;;17.57;16.87;;;25.00;83.80;;;;;;5036713;28;20459;-63
2021/08/09 09:53:39;;;;;;;16.90;16.30;;;24.90;83.90;;;;;;5027732;28;20447;-65
2021/08/09 09:56:08;;;;;;;16.23;15.53;;;25.20;83.20;;;;;;5034320;28;21016;-65
2021/08/09 09:58:36;;;;;;;17.73;16.83;;;25.00;81.90;;;;;;5030182;28;20487;-65
2021/08/09 10:01:04;;;;;;;17.60;16.80;;;25.10;82.30;;;;;;5030323;28;20460;-65
2021/08/09 10:03:32;;;;;;;18.30;17.10;;;25.10;78.60;;;;;;5026404;28;20942;-63
2021/08/09 10:06:00;;;;;;;18.53;17.50;;;24.90;77.30;;;;;;5031162;28;20886;-65
2021/08/09 10:08:30;;;;;;;18.00;17.20;;;24.30;79.90;;;;;;5033378;28;20507;-64
2021/08/09 10:10:59;;;;;;;18.50;17.80;;;24.40;81.70;;;;;;5029441;28;20460;-65
2021/08/09 10:13:28;;;;;;;18.50;17.60;;;24.70;81.90;;;;;;5029792;28;20457;-65
2021/08/09 10:15:56;;;;;;;17.77;16.97;;;24.90;81.80;;;;;;5035312;28;20911;-64
2021/08/09 10:18:26;;;;;;;18.10;17.30;;;25.00;77.80;;;;;;5031172;28;20475;-64
2021/08/09 10:20:53;;;;;;;17.60;16.47;;;25.20;77.80;;;;;;5033671;28;21255;-64
2021/08/09 10:23:40;;;;;;;16.93;16.30;;;25.30;77.20;;;;;;5028686;28;20794;-65
2021/08/09 10:26:08;;;;;;;18.07;17.43;;;25.30;77.30;;;;;;5035831;28;20537;-64
2021/08/09 10:29:08;;;;;;;17.90;17.10;;;25.00;74.40;;;;;;5032943;28;20515;-64
2021/08/09 10:31:39;;;;;;;17.83;16.87;;;24.90;71.90;;;;;;5026109;28;20475;-64
2021/08/09 10:34:07;;;;;;;18.70;17.90;;;24.40;74.40;;;;;;5030861;28;20449;-63
2021/08/09 10:37:06;;;;;;;17.80;17.10;;;24.40;72.20;;;;;;5033154;28;20475;-64
2021/08/09 10:40:03;;;;;;;17.50;16.70;;;24.50;72.70;;;;;;4973600;28;20880;-64
2021/08/09 10:42:32;;;;;;;17.20;16.57;;;24.80;71.60;;;;;;5031448;28;20885;-64
2021/08/09 10:45:01;;;;;;;17.50;16.80;;;25.10;68.90;;;;;;5032906;28;20761;-64
2021/08/09 10:47:50;;;;;;;16.83;16.20;;;25.50;68.00;;;;;;5033624;28;20467;-65
2021/08/09 10:50:52;;;;;;;18.17;17.57;;;26.20;66.90;;;;;;5031408;28;20917;-64
2021/08/09 10:53:46;;;;;;;17.97;17.17;;;26.60;62.80;;;;;;5031720;28;20456;-63
2021/08/09 10:56:47;;;;;;;18.20;17.60;;;27.30;62.00;;;;;;5031770;28;21186;-63
2021/08/09 10:59:41;;;;;;;19.20;18.40;;;27.70;57.70;;;;;;5031229;28;20523;-64
2021/08/09 11:02:17;;;;;;;19.03;18.33;;;27.60;55.10;;;;;;5025302;28;20464;-63
2021/08/09 11:04:45;;;;;;;17.53;16.83;;;27.50;55.40;;;;;;5032641;28;20479;-64
2021/08/09 11:07:18;;;;;;;18.53;17.73;;;27.50;56.20;;;;;;5031231;28;20471;-65
2021/08/09 11:09:47;;;;;;;18.47;17.47;;;27.50;54.10;;;;;;5021375;28;20473;-65
2021/08/09 11:12:24;;;;;;;17.13;16.60;;;27.60;54.40;;;;;;5024149;28;20453;-65
2021/08/09 11:15:17;;;;;;;18.47;17.83;;;28.10;54.10;;;;;;5031862;28;20456;-66
2021/08/09 11:17:51;;;;;;;18.93;18.13;;;28.60;54.40;;;;;;5026568;28;20470;-66
2021/08/09 11:20:21;;;;;;;18.50;17.80;;;28.60;53.50;;;;;;5030124;28;20444;-65
2021/08/09 11:22:57;;;;;;;18.33;17.50;;;28.30;52.40;;;;;;5028574;28;20445;-65
2021/08/09 11:25:29;;;;;;;18.83;17.63;;;28.40;52.00;;;;;;5032260;28;20480;-65
2021/08/09 11:28:04;;;;;;;18.90;17.97;;;28.40;52.30;;;;;;5031212;28;20483;-65
2021/08/09 11:30:37;;;;;;;18.83;18.03;;;28.60;51.90;;;;;;5024473;28;20478;-65
2021/08/09 11:33:07;;;;;;;18.33;17.53;;;28.70;52.20;;;;;;5031642;28;20448;-66
2021/08/09 11:35:42;;;;;;;18.47;17.57;;;28.40;50.50;;;;;;5031828;28;20845;-65
2021/08/09 11:38:09;;;;;;;19.73;18.73;;;28.50;50.80;;;;;;5030634;28;20533;-66
2021/08/09 11:40:39;;;;;;;19.40;18.70;;;29.50;50.40;;;;;;5028505;28;20789;-65
2021/08/09 11:43:06;;;;;;;19.03;18.40;;;29.30;49.40;;;;;;5028168;28;21309;-65
2021/08/09 11:45:33;;;;;;;19.33;18.30;;;29.60;49.30;;;;;;5031740;28;20455;-65
2021/08/09 11:48:00;;;;;;;18.10;17.40;;;30.70;47.00;;;;;;5031565;28;20558;-66
2021/08/09 11:50:35;;;;;;;18.90;18.20;;;31.20;47.30;;;;;;5031236;28;20854;-65
2021/08/09 11:53:02;;;;;;;19.40;18.70;;;31.70;46.00;;;;;;5028745;28;20498;-65
2021/08/09 11:55:29;;;;;;;19.20;18.50;;;32.40;44.10;;;;;;5040140;28;20451;-65
2021/08/09 11:57:55;;;;;;;20.10;19.30;;;33.70;41.70;;;;;;5039912;28;20476;-65
2021/08/09 12:00:24;;;;;;;19.93;19.13;;;32.10;41.40;;;;;;5040029;28;20526;-65
2021/08/09 12:03:11;;;;;;;19.33;18.53;;;31.00;43.20;;;;;;5025010;28;20464;-65
2021/08/09 12:05:40;;;;;;;19.27;18.50;;;30.20;44.70;;;;;;5020131;28;20456;-65
2021/08/09 12:08:07;;;;;;;20.00;19.20;;;29.70;46.00;;;;;;5020041;28;20478;-65
2021/08/09 12:10:35;;;;;;;18.37;17.77;;;29.70;46.40;;;;;;5019736;28;20480;-65
2021/08/09 12:13:02;;;;;;;18.27;17.67;;;29.20;46.80;;;;;;5019503;28;20444;-65
2021/08/09 12:15:29;;;;;;;17.63;17.03;;;29.10;47.10;;;;;;5025416;28;20897;-65
2021/08/09 12:18:03;;;;;;;17.53;16.97;;;28.80;46.60;;;;;;5028453;28;20476;-65
2021/08/09 12:20:30;;;;;;;18.20;17.40;;;28.80;47.30;;;;;;5035537;28;20453;-65
2021/08/09 12:22:58;;;;;;;18.33;17.73;;;28.10;48.10;;;;;;5027461;28;20453;-66
2021/08/09 12:25:35;;;;;;;18.73;17.97;;;28.20;48.50;;;;;;5031204;28;20455;-66
2021/08/09 12:28:04;;;;;;;18.30;17.70;;;28.30;49.00;;;;;;5030930;28;20468;-66
2021/08/09 12:30:31;;;;;;;17.83;17.13;;;28.20;48.10;;;;;;5029794;28;20480;-65
2021/08/09 12:33:00;;;;;;;18.30;17.50;;;27.80;48.30;;;;;;5030583;28;20518;-66
2021/08/09 12:35:34;;;;;;;18.37;17.67;;;27.40;47.40;;;;;;5030580;28;20920;-66
2021/08/09 12:38:03;;;;;;;18.23;17.33;;;27.80;47.70;;;;;;5030022;28;20500;-66
2021/08/09 12:40:39;;;;;;;18.50;17.70;;;27.70;48.10;;;;;;5035330;28;20446;-66
2021/08/09 12:43:08;;;;;;;18.13;17.53;;;27.80;48.30;;;;;;5027419;28;20561;-66
2021/08/09 12:45:36;;;;;;;16.90;16.30;;;28.00;48.50;;;;;;5032092;28;20551;-66